BRS03 SBBR-SBBV
Flight info
| Callsign | BRS03 |
|---|---|
| Flight time | N/A |
| Altitude | 38000 |
| Route | ILKUS DCT OPNAX UZ24 ANBIX UM402 BVI |
| Aircraft | E190/M-SDE3GILORVW/S |
Departure
| Time | 2026-05-05 17:00 |
|---|---|
| Airport | Presidente Juscelino Kubitschek International Airport (SBBR) |
Arrival
| Time | N/A |
|---|---|
| Airport | Atlas Brasil Cantanhede International Airport (SBBV) |
| Time | Latitude | Longitude | Altitude | Speed | Heading |
|---|---|---|---|---|---|
| 2026-05-05 16:47 | -15.86607 | -47.90497 | 3482 ft | 0 kts | 265° |
| 2026-05-05 16:55 | -15.86607 | -47.90499 | 3482 ft | 0 kts | 265° |
| 2026-05-05 16:55 | -15.86608 | -47.90506 | 3482 ft | 2 kts | 265° |
| 2026-05-05 16:55 | -15.86598 | -47.90543 | 3482 ft | 10 kts | 303° |
| 2026-05-05 16:55 | -15.86552 | -47.90614 | 3480 ft | 17 kts | 287° |
| 2026-05-05 16:56 | -15.86444 | -47.90710 | 3481 ft | 22 kts | 339° |
| 2026-05-05 16:56 | -15.86424 | -47.90751 | 3483 ft | 11 kts | 271° |
| 2026-05-05 16:56 | -15.86436 | -47.90962 | 3481 ft | 30 kts | 265° |
| 2026-05-05 16:56 | -15.86452 | -47.91205 | 3476 ft | 38 kts | 266° |
| 2026-05-05 16:57 | -15.86465 | -47.91405 | 3467 ft | 46 kts | 266° |
| 2026-05-05 16:57 | -15.86487 | -47.91757 | 3467 ft | 51 kts | 266° |
| 2026-05-05 16:57 | -15.86512 | -47.92145 | 3466 ft | 55 kts | 266° |
| 2026-05-05 16:57 | -15.86536 | -47.92523 | 3475 ft | 45 kts | 266° |
| 2026-05-05 16:58 | -15.86537 | -47.92759 | 3458 ft | 13 kts | 314° |
| 2026-05-05 16:58 | -15.86483 | -47.92766 | 3458 ft | 0 kts | 356° |
| 2026-05-05 16:58 | -15.86482 | -47.92766 | 3458 ft | 2 kts | 356° |
| 2026-05-05 16:59 | -15.86415 | -47.92770 | 3458 ft | 18 kts | 2° |
| 2026-05-05 16:59 | -15.86348 | -47.92639 | 3460 ft | 23 kts | 85° |
| 2026-05-05 16:59 | -15.86326 | -47.92295 | 3466 ft | 80 kts | 86° |
| 2026-05-05 16:59 | -15.86273 | -47.91491 | 3465 ft | 142 kts | 86° |
| 2026-05-05 17:00 | -15.86226 | -47.90376 | 3891 ft | 163 kts | 90° |
| 2026-05-05 17:00 | -15.86214 | -47.89133 | 4621 ft | 182 kts | 86° |
| 2026-05-05 17:00 | -15.86103 | -47.87668 | 5089 ft | 221 kts | 84° |
| 2026-05-05 17:00 | -15.85942 | -47.86045 | 5964 ft | 233 kts | 84° |
| 2026-05-05 17:01 | -15.85816 | -47.84365 | 7110 ft | 237 kts | 85° |
| 2026-05-05 17:01 | -15.85697 | -47.82619 | 8154 ft | 245 kts | 85° |
| 2026-05-05 17:01 | -15.85573 | -47.80765 | 8922 ft | 280 kts | 85° |
| 2026-05-05 17:01 | -15.85424 | -47.78690 | 9913 ft | 290 kts | 84° |
| 2026-05-05 17:02 | -15.84902 | -47.76658 | 10979 ft | 294 kts | 59° |
| 2026-05-05 17:02 | -15.83504 | -47.75154 | 12050 ft | 297 kts | 29° |
| 2026-05-05 17:02 | -15.81511 | -47.74597 | 13079 ft | 304 kts | 359° |
| 2026-05-05 17:02 | -15.79438 | -47.75121 | 14072 ft | 313 kts | 339° |
| 2026-05-05 17:03 | -15.77445 | -47.76091 | 14910 ft | 320 kts | 334° |
| 2026-05-05 17:03 | -15.75444 | -47.77138 | 15781 ft | 325 kts | 334° |
| 2026-05-05 17:03 | -15.73394 | -47.78179 | 16631 ft | 330 kts | 334° |
| 2026-05-05 17:03 | -15.71295 | -47.79216 | 17443 ft | 337 kts | 334° |
| 2026-05-05 17:04 | -15.69157 | -47.80257 | 18258 ft | 342 kts | 334° |
| 2026-05-05 17:04 | -15.66993 | -47.81328 | 18972 ft | 349 kts | 333° |
| 2026-05-05 17:04 | -15.64730 | -47.82492 | 19029 ft | 375 kts | 332° |
| 2026-05-05 17:04 | -15.62390 | -47.83711 | 19809 ft | 376 kts | 332° |
| 2026-05-05 17:05 | -15.60034 | -47.84934 | 20545 ft | 379 kts | 333° |
| 2026-05-05 17:05 | -15.57658 | -47.86161 | 21237 ft | 384 kts | 332° |
| 2026-05-05 17:05 | -15.55258 | -47.87402 | 21933 ft | 387 kts | 332° |
| 2026-05-05 17:05 | -15.52834 | -47.88658 | 22612 ft | 391 kts | 332° |
| 2026-05-05 17:06 | -15.50382 | -47.89927 | 23255 ft | 396 kts | 332° |
| 2026-05-05 17:06 | -15.47911 | -47.91206 | 23855 ft | 399 kts | 332° |
| 2026-05-05 17:06 | -15.45444 | -47.92479 | 24402 ft | 402 kts | 332° |
| 2026-05-05 17:06 | -15.42943 | -47.93776 | 24945 ft | 404 kts | 332° |
| 2026-05-05 17:07 | -15.40419 | -47.95082 | 25465 ft | 407 kts | 332° |
| 2026-05-05 17:07 | -15.37872 | -47.96401 | 25976 ft | 409 kts | 332° |
| 2026-05-05 17:07 | -15.35315 | -47.97723 | 26481 ft | 412 kts | 332° |
| 2026-05-05 17:07 | -15.32736 | -47.99051 | 26941 ft | 416 kts | 332° |
| 2026-05-05 17:08 | -15.30136 | -48.00396 | 27408 ft | 419 kts | 331° |
| 2026-05-05 17:08 | -15.27525 | -48.01747 | 27868 ft | 421 kts | 331° |
| 2026-05-05 17:08 | -15.24894 | -48.03106 | 28328 ft | 424 kts | 331° |
| 2026-05-05 17:08 | -15.22244 | -48.04472 | 28751 ft | 427 kts | 331° |
| 2026-05-05 17:09 | -15.19570 | -48.05851 | 29168 ft | 430 kts | 331° |
| 2026-05-05 17:09 | -15.16886 | -48.07235 | 29583 ft | 433 kts | 331° |
| 2026-05-05 17:09 | -15.14180 | -48.08630 | 29988 ft | 436 kts | 331° |
| 2026-05-05 17:09 | -15.11456 | -48.10035 | 30320 ft | 439 kts | 330° |
| 2026-05-05 17:10 | -15.08715 | -48.11448 | 30658 ft | 441 kts | 330° |
| 2026-05-05 17:10 | -15.05961 | -48.12867 | 30960 ft | 444 kts | 330° |
| 2026-05-05 17:10 | -15.03226 | -48.14274 | 31271 ft | 446 kts | 330° |
| 2026-05-05 17:10 | -15.00439 | -48.15708 | 31552 ft | 449 kts | 330° |
| 2026-05-05 17:11 | -14.97632 | -48.17153 | 31846 ft | 451 kts | 329° |
| 2026-05-05 17:11 | -14.94814 | -48.18602 | 32126 ft | 453 kts | 329° |
| 2026-05-05 17:11 | -14.92020 | -48.20118 | 32415 ft | 451 kts | 322° |
| 2026-05-05 17:11 | -14.89507 | -48.22025 | 32828 ft | 446 kts | 316° |
| 2026-05-05 17:12 | -14.87146 | -48.24103 | 33168 ft | 444 kts | 314° |
| 2026-05-05 17:12 | -14.84820 | -48.26195 | 33581 ft | 443 kts | 314° |
| 2026-05-05 17:12 | -14.82479 | -48.28263 | 33947 ft | 443 kts | 314° |
| 2026-05-05 17:12 | -14.80119 | -48.30315 | 34261 ft | 443 kts | 314° |
| 2026-05-05 17:13 | -14.77763 | -48.32346 | 34619 ft | 440 kts | 315° |
| 2026-05-05 17:13 | -14.75415 | -48.34367 | 34930 ft | 439 kts | 314° |
| 2026-05-05 17:13 | -14.73064 | -48.36393 | 35234 ft | 438 kts | 314° |
| 2026-05-05 17:13 | -14.70759 | -48.38378 | 35569 ft | 436 kts | 314° |
| 2026-05-05 17:14 | -14.68407 | -48.40404 | 35857 ft | 435 kts | 314° |
| 2026-05-05 17:14 | -14.66115 | -48.42379 | 36184 ft | 433 kts | 314° |
| 2026-05-05 17:14 | -14.63806 | -48.44367 | 36475 ft | 432 kts | 314° |
| 2026-05-05 17:14 | -14.61504 | -48.46349 | 36760 ft | 431 kts | 314° |
| 2026-05-05 17:15 | -14.59203 | -48.48331 | 37068 ft | 429 kts | 314° |
| 2026-05-05 17:15 | -14.56913 | -48.50300 | 37320 ft | 428 kts | 314° |
| 2026-05-05 17:15 | -14.54621 | -48.52272 | 37567 ft | 427 kts | 314° |
| 2026-05-05 17:15 | -14.52339 | -48.54233 | 37850 ft | 426 kts | 314° |
| 2026-05-05 17:16 | -14.47749 | -48.58180 | 37951 ft | 434 kts | 315° |
| 2026-05-05 17:16 | -14.43051 | -48.62219 | 37984 ft | 444 kts | 315° |
| 2026-05-05 17:17 | -14.38258 | -48.66331 | 38044 ft | 453 kts | 315° |
| 2026-05-05 17:17 | -14.33392 | -48.70509 | 38044 ft | 463 kts | 315° |
| 2026-05-05 17:18 | -14.28397 | -48.74791 | 38044 ft | 468 kts | 315° |
| 2026-05-05 17:18 | -14.23369 | -48.79098 | 38039 ft | 472 kts | 315° |
| 2026-05-05 17:19 | -14.18295 | -48.83441 | 38036 ft | 476 kts | 315° |
| 2026-05-05 17:19 | -14.13173 | -48.87826 | 38035 ft | 480 kts | 315° |
| 2026-05-05 17:20 | -14.08052 | -48.92206 | 38034 ft | 484 kts | 315° |
| 2026-05-05 17:20 | -14.02856 | -48.96648 | 38034 ft | 486 kts | 315° |
| 2026-05-05 17:21 | -13.97646 | -49.01097 | 38027 ft | 486 kts | 315° |
| 2026-05-05 17:22 | -13.89836 | -49.07764 | 38016 ft | 487 kts | 315° |
| 2026-05-05 17:22 | -13.84625 | -49.12211 | 38018 ft | 487 kts | 315° |
| 2026-05-05 17:23 | -13.79241 | -49.16477 | 38019 ft | 492 kts | 323° |
| 2026-05-05 17:23 | -13.73265 | -49.19972 | 38014 ft | 495 kts | 326° |
| 2026-05-05 17:24 | -13.67252 | -49.23443 | 38009 ft | 495 kts | 326° |
| 2026-05-05 17:24 | -13.61315 | -49.26941 | 38007 ft | 495 kts | 326° |
| 2026-05-05 17:25 | -13.55338 | -49.30468 | 38004 ft | 495 kts | 326° |
| 2026-05-05 17:25 | -13.49353 | -49.33997 | 38008 ft | 495 kts | 326° |
| 2026-05-05 17:26 | -13.43370 | -49.37522 | 38002 ft | 495 kts | 326° |
| 2026-05-05 17:26 | -13.37389 | -49.41044 | 38001 ft | 495 kts | 326° |
| 2026-05-05 17:27 | -13.31411 | -49.44561 | 38003 ft | 495 kts | 326° |
| 2026-05-05 17:27 | -13.25466 | -49.48056 | 38000 ft | 495 kts | 326° |
| 2026-05-05 17:28 | -13.19490 | -49.51569 | 38000 ft | 496 kts | 326° |
| 2026-05-05 17:28 | -13.13466 | -49.55108 | 38001 ft | 496 kts | 326° |
| 2026-05-05 17:29 | -13.07516 | -49.58601 | 37999 ft | 496 kts | 327° |
| 2026-05-05 17:29 | -13.01523 | -49.62118 | 37996 ft | 496 kts | 327° |
| 2026-05-05 17:30 | -12.95530 | -49.65632 | 37998 ft | 496 kts | 327° |
| 2026-05-05 17:30 | -12.89551 | -49.69166 | 38000 ft | 496 kts | 326° |
| 2026-05-05 17:31 | -12.83581 | -49.72707 | 38000 ft | 496 kts | 327° |
| 2026-05-05 17:31 | -12.77607 | -49.76243 | 38000 ft | 496 kts | 327° |
| 2026-05-05 17:32 | -12.71624 | -49.79780 | 37999 ft | 496 kts | 327° |
| 2026-05-05 17:32 | -12.65651 | -49.83311 | 38001 ft | 496 kts | 327° |
| 2026-05-05 17:33 | -12.59710 | -49.86821 | 37993 ft | 495 kts | 327° |
| 2026-05-05 17:33 | -12.53740 | -49.90344 | 37995 ft | 495 kts | 327° |
| 2026-05-05 17:34 | -12.47778 | -49.93863 | 37996 ft | 495 kts | 327° |
| 2026-05-05 17:34 | -12.41811 | -49.97382 | 37996 ft | 494 kts | 327° |
| 2026-05-05 17:35 | -12.35850 | -50.00895 | 37989 ft | 494 kts | 327° |
| 2026-05-05 17:35 | -12.29882 | -50.04411 | 37993 ft | 494 kts | 327° |
| 2026-05-05 17:36 | -12.23917 | -50.07923 | 37987 ft | 494 kts | 327° |
| 2026-05-05 17:36 | -12.17949 | -50.11434 | 37990 ft | 494 kts | 327° |
| 2026-05-05 17:37 | -12.11994 | -50.14938 | 37986 ft | 494 kts | 327° |
| 2026-05-05 17:37 | -12.06032 | -50.18444 | 37983 ft | 494 kts | 328° |
| 2026-05-05 17:38 | -12.00111 | -50.21921 | 37987 ft | 494 kts | 328° |
| 2026-05-05 17:38 | -11.94150 | -50.25422 | 37983 ft | 493 kts | 328° |
| 2026-05-05 17:39 | -11.88193 | -50.28918 | 37984 ft | 493 kts | 328° |
| 2026-05-05 17:39 | -11.82234 | -50.32415 | 37982 ft | 493 kts | 328° |
| 2026-05-05 17:40 | -11.76283 | -50.35905 | 37981 ft | 493 kts | 328° |
| 2026-05-05 17:40 | -11.70372 | -50.39369 | 37982 ft | 493 kts | 328° |
| 2026-05-05 17:41 | -11.64419 | -50.42857 | 37983 ft | 493 kts | 328° |
| 2026-05-05 17:41 | -11.58456 | -50.46348 | 37981 ft | 495 kts | 328° |
| 2026-05-05 17:42 | -11.52465 | -50.49853 | 37982 ft | 496 kts | 328° |
| 2026-05-05 17:42 | -11.46486 | -50.53350 | 37982 ft | 496 kts | 328° |
| 2026-05-05 17:43 | -11.40492 | -50.56855 | 37985 ft | 496 kts | 328° |
| 2026-05-05 17:43 | -11.34534 | -50.60336 | 37980 ft | 496 kts | 328° |
| 2026-05-05 17:44 | -11.28540 | -50.63838 | 37981 ft | 496 kts | 328° |
| 2026-05-05 17:44 | -11.22545 | -50.67338 | 37981 ft | 496 kts | 328° |
| 2026-05-05 17:45 | -11.16553 | -50.70835 | 37977 ft | 496 kts | 328° |
| 2026-05-05 17:45 | -11.11567 | -50.73744 | 37977 ft | 497 kts | 328° |
| 2026-05-05 17:46 | -11.05572 | -50.77238 | 37974 ft | 497 kts | 328° |
| 2026-05-05 17:46 | -10.99565 | -50.80738 | 37975 ft | 497 kts | 328° |
| 2026-05-05 17:47 | -10.93561 | -50.84235 | 37974 ft | 497 kts | 328° |
| 2026-05-05 17:47 | -10.87560 | -50.87729 | 37973 ft | 497 kts | 328° |
| 2026-05-05 17:48 | -10.81555 | -50.91224 | 37972 ft | 497 kts | 328° |
| 2026-05-05 17:48 | -10.75587 | -50.94694 | 37970 ft | 497 kts | 328° |
| 2026-05-05 17:49 | -10.69586 | -50.98184 | 37972 ft | 497 kts | 328° |
| 2026-05-05 17:49 | -10.63591 | -51.01667 | 37975 ft | 496 kts | 328° |
| 2026-05-05 17:50 | -10.57595 | -51.05151 | 37973 ft | 496 kts | 328° |
| 2026-05-05 17:50 | -10.51605 | -51.08639 | 37970 ft | 496 kts | 327° |
| 2026-05-05 17:51 | -10.45798 | -51.12400 | 37974 ft | 495 kts | 324° |
| 2026-05-05 17:51 | -10.40050 | -51.16245 | 37973 ft | 495 kts | 324° |
| 2026-05-05 17:52 | -10.34280 | -51.20059 | 37963 ft | 495 kts | 324° |
| 2026-05-05 17:52 | -10.28509 | -51.23865 | 37972 ft | 494 kts | 324° |
| 2026-05-05 17:53 | -10.22765 | -51.27653 | 37966 ft | 494 kts | 324° |
| 2026-05-05 17:53 | -10.16998 | -51.31452 | 37970 ft | 494 kts | 324° |
| 2026-05-05 17:54 | -10.11222 | -51.35257 | 37967 ft | 494 kts | 324° |
| 2026-05-05 17:54 | -10.05433 | -51.39068 | 37964 ft | 494 kts | 324° |
| 2026-05-05 17:55 | -9.99672 | -51.42858 | 37967 ft | 494 kts | 324° |
| 2026-05-05 17:55 | -9.93896 | -51.46656 | 37964 ft | 494 kts | 324° |
| 2026-05-05 17:56 | -9.88123 | -51.50452 | 37968 ft | 494 kts | 324° |
| 2026-05-05 17:56 | -9.82348 | -51.54247 | 37962 ft | 495 kts | 324° |
| 2026-05-05 17:57 | -9.76566 | -51.58044 | 37967 ft | 495 kts | 324° |
| 2026-05-05 17:57 | -9.70826 | -51.61813 | 37961 ft | 495 kts | 324° |
| 2026-05-05 17:58 | -9.65006 | -51.65633 | 37967 ft | 495 kts | 324° |
| 2026-05-05 17:58 | -9.59264 | -51.69400 | 37958 ft | 495 kts | 324° |
| 2026-05-05 17:59 | -9.53477 | -51.73195 | 37957 ft | 495 kts | 324° |
| 2026-05-05 17:59 | -9.47694 | -51.76986 | 37960 ft | 495 kts | 324° |
| 2026-05-05 18:00 | -9.41903 | -51.80781 | 37951 ft | 495 kts | 324° |
| 2026-05-05 18:00 | -9.36116 | -51.84571 | 37957 ft | 495 kts | 324° |
| 2026-05-05 18:01 | -9.30359 | -51.88342 | 37949 ft | 496 kts | 324° |
| 2026-05-05 18:01 | -9.24567 | -51.92132 | 37942 ft | 496 kts | 324° |
| 2026-05-05 18:02 | -9.18773 | -51.95923 | 37944 ft | 496 kts | 324° |
| 2026-05-05 18:02 | -9.12972 | -51.99715 | 37948 ft | 496 kts | 324° |
| 2026-05-05 18:03 | -9.07178 | -52.03503 | 37943 ft | 496 kts | 324° |
| 2026-05-05 18:03 | -9.01381 | -52.07292 | 37940 ft | 496 kts | 325° |
| 2026-05-05 18:04 | -8.95577 | -52.11082 | 37943 ft | 496 kts | 325° |
| 2026-05-05 18:04 | -8.89809 | -52.14847 | 37944 ft | 496 kts | 325° |
| 2026-05-05 18:05 | -8.84010 | -52.18633 | 37933 ft | 496 kts | 325° |
| 2026-05-05 18:05 | -8.78197 | -52.22425 | 37945 ft | 496 kts | 325° |
| 2026-05-05 18:06 | -8.72394 | -52.26210 | 37936 ft | 496 kts | 325° |
| 2026-05-05 18:06 | -8.66591 | -52.29993 | 37938 ft | 496 kts | 325° |
| 2026-05-05 18:07 | -8.60784 | -52.33776 | 37950 ft | 496 kts | 325° |
| 2026-05-05 18:07 | -8.55023 | -52.37530 | 37950 ft | 496 kts | 325° |
| 2026-05-05 18:08 | -8.49228 | -52.41314 | 37934 ft | 496 kts | 325° |
| 2026-05-05 18:08 | -8.43425 | -52.45102 | 37930 ft | 496 kts | 325° |
| 2026-05-05 18:09 | -8.37631 | -52.48882 | 37941 ft | 496 kts | 325° |
| 2026-05-05 18:09 | -8.31837 | -52.52660 | 37940 ft | 496 kts | 325° |
| 2026-05-05 18:10 | -8.26043 | -52.56436 | 37926 ft | 496 kts | 325° |
| 2026-05-05 18:10 | -8.20236 | -52.60218 | 37936 ft | 495 kts | 325° |
| 2026-05-05 18:11 | -8.14479 | -52.63970 | 37926 ft | 496 kts | 325° |
| 2026-05-05 18:11 | -8.08684 | -52.67745 | 37941 ft | 496 kts | 325° |
| 2026-05-05 18:12 | -8.02881 | -52.71519 | 37920 ft | 495 kts | 326° |
| 2026-05-05 18:12 | -7.97085 | -52.75290 | 37925 ft | 496 kts | 326° |
| 2026-05-05 18:13 | -7.91324 | -52.79037 | 37925 ft | 495 kts | 325° |
| 2026-05-05 18:13 | -7.85517 | -52.82815 | 37931 ft | 495 kts | 326° |
| 2026-05-05 18:14 | -7.79716 | -52.86586 | 37920 ft | 495 kts | 326° |
| 2026-05-05 18:14 | -7.73924 | -52.90347 | 37932 ft | 495 kts | 326° |
| 2026-05-05 18:15 | -7.68165 | -52.94090 | 37925 ft | 495 kts | 326° |
| 2026-05-05 18:15 | -7.62370 | -52.97856 | 37920 ft | 494 kts | 326° |
| 2026-05-05 18:16 | -7.56588 | -53.01608 | 37928 ft | 494 kts | 326° |
| 2026-05-05 18:16 | -7.50809 | -53.05359 | 37926 ft | 494 kts | 326° |
| 2026-05-05 18:17 | -7.45037 | -53.09104 | 37926 ft | 493 kts | 326° |
| 2026-05-05 18:17 | -7.39296 | -53.12824 | 37925 ft | 493 kts | 326° |
| 2026-05-05 18:18 | -7.33527 | -53.16564 | 37919 ft | 493 kts | 326° |
| 2026-05-05 18:18 | -7.27760 | -53.20305 | 37924 ft | 493 kts | 326° |
| 2026-05-05 18:19 | -7.21990 | -53.24042 | 37926 ft | 493 kts | 327° |
| 2026-05-05 18:19 | -7.16222 | -53.27777 | 37924 ft | 493 kts | 327° |
| 2026-05-05 18:20 | -7.10448 | -53.31516 | 37923 ft | 493 kts | 327° |
| 2026-05-05 18:20 | -7.04706 | -53.35233 | 37923 ft | 494 kts | 327° |
| 2026-05-05 18:21 | -7.00835 | -53.37737 | 37928 ft | 494 kts | 327° |